Brainard, New York
Current Conditions -  °F | °C
As of 10:54 AM on Thursday 29 Jan 2015 (Local Time) from KPSF Reporting Station
Clear Clear  
Wind Chill: 15°   Ceiling: Unl
Heat Index: 15°   Visibility: 10mi
Dew Point:   Wind: 0mph
Humidity: 51%   Direction: NA
Pressure: 30.19"   Gusts: NA
Location:  42.5°N, 73.51°W
Report Text: KPSF 291554Z AUTO 00000KT 10SM CLR M09/M18 A3019 RMK AO2 SLP252 T10941178
Loading
Personal Weather Stations






























Interactive Weather Map New forecast layout! Learn more

10-Day Weather Forecast

Advertisements
Track Severe Weather on mobile